Time;durP1;ratioP1;P1;durP2;ratioP2;P2;SDS_P1;SDS_P2;PMS_P1;PMS_P2;Temp;Humidity;BMP_temperature;BMP_pressure;BME280_temperature;BME280_humidity;BME280_pressure;Samples;Min_cycle;Max_cycle;Signal;HPM_P1;HPM_P2
2022/11/14 00:02:41;;;;;;;6.47;3.10;;;5.60;99.90;;;5.39;100.00;100981.31;5143150;28;20049;-71
2022/11/14 00:05:32;;;;;;;5.70;3.17;;;5.50;99.90;;;5.37;100.00;100982.91;5143416;28;20057;-72
2022/11/14 00:08:25;;;;;;;5.13;2.63;;;5.50;99.90;;;5.34;100.00;100980.13;5142759;28;20062;-71
2022/11/14 00:11:15;;;;;;;4.90;2.65;;;5.50;99.90;;;5.33;100.00;100981.84;5143471;28;20436;-71
2022/11/14 00:14:07;;;;;;;5.85;2.90;;;5.50;99.90;;;5.31;100.00;100979.97;5143159;28;20101;-72
2022/11/14 00:16:57;;;;;;;6.38;2.83;;;5.50;99.90;;;5.28;100.00;100979.78;5143339;28;20407;-71
2022/11/14 00:19:48;;;;;;;6.90;3.38;;;5.40;99.90;;;5.25;100.00;100983.09;5142811;28;20127;-72
2022/11/14 00:22:38;;;;;;;7.18;3.03;;;5.40;99.90;;;5.24;100.00;100977.84;5143028;28;20050;-71
2022/11/14 00:25:29;;;;;;;6.55;3.33;;;5.40;99.90;;;5.25;100.00;100974.44;5142891;28;20126;-71
2022/11/14 00:28:20;;;;;;;5.95;3.03;;;5.40;99.90;;;5.20;100.00;100968.09;5142954;28;20074;-71
2022/11/14 00:47:56;;;;;;;5.30;2.92;;;5.20;99.90;;;5.03;100.00;100944.75;5141546;28;20481;-71
2022/11/14 00:50:47;;;;;;;6.10;3.00;;;5.20;99.90;;;5.02;100.00;100937.81;5142896;28;20113;-71
2022/11/14 00:53:38;;;;;;;4.93;2.78;;;5.20;99.90;;;4.99;100.00;100931.56;5143030;28;20094;-72
2022/11/14 00:56:29;;;;;;;5.10;2.50;;;5.20;99.90;;;4.96;100.00;100939.16;5143014;28;20055;-71
2022/11/14 00:59:19;;;;;;;4.90;2.63;;;5.20;99.90;;;4.94;100.00;100931.28;5143952;28;20209;-71
2022/11/14 01:02:10;;;;;;;4.68;2.58;;;5.10;99.90;;;4.93;100.00;100928.63;5146511;28;20054;-71
2022/11/14 01:05:02;;;;;;;6.47;3.00;;;5.10;99.90;;;4.93;100.00;100933.78;5146204;28;20054;-71
2022/11/14 01:07:54;;;;;;;4.57;2.75;;;5.10;99.90;;;4.96;100.00;100927.13;5145976;28;20432;-72
2022/11/14 01:10:47;;;;;;;5.03;2.80;;;5.10;99.90;;;4.98;100.00;100924.63;5146650;28;20054;-71
2022/11/14 01:13:38;;;;;;;5.57;2.60;;;5.20;99.90;;;4.99;100.00;100929.88;5146090;28;20062;-72
2022/11/14 01:16:29;;;;;;;3.85;2.50;;;5.20;99.90;;;5.00;100.00;100918.72;5146301;28;20089;-71
2022/11/14 01:19:19;;;;;;;3.67;2.22;;;5.20;99.90;;;5.00;100.00;100921.31;5145832;28;20050;-71
2022/11/14 01:22:11;;;;;;;3.95;2.50;;;5.20;99.90;;;4.98;100.00;100917.75;5145736;28;20098;-71
2022/11/14 01:25:02;;;;;;;5.03;2.42;;;5.10;99.90;;;4.93;100.00;100916.59;5146192;28;20189;-71
2022/11/14 01:49:43;;;;;;;4.53;2.25;;;4.90;99.90;;;4.61;100.00;100894.88;5145284;28;20099;-71
2022/11/14 01:52:37;;;;;;;4.25;2.25;;;4.80;99.90;;;4.58;100.00;100894.72;5145707;28;20050;-71
2022/11/14 01:55:28;;;;;;;5.50;2.90;;;4.80;99.90;;;4.54;100.00;100887.59;5146078;28;20408;-72
2022/11/14 01:58:21;;;;;;;5.65;2.50;;;4.80;99.90;;;4.49;100.00;100881.25;5145103;28;20522;-72
2022/11/14 02:01:11;;;;;;;6.25;2.88;;;4.70;99.90;;;4.48;100.00;100881.16;5145122;28;20070;-71
2022/11/14 02:04:05;;;;;;;4.88;2.40;;;4.70;99.90;;;4.44;100.00;100882.69;5145302;28;20123;-71
2022/11/14 02:07:01;;;;;;;4.63;2.30;;;4.70;99.90;;;4.44;100.00;100880.09;5145022;28;20054;-71
2022/11/14 02:09:52;;;;;;;5.43;2.67;;;4.70;99.90;;;4.44;100.00;100881.78;5144656;28;20102;-72
2022/11/14 02:12:43;;;;;;;4.60;2.47;;;4.60;99.90;;;4.39;100.00;100889.25;5145211;28;20058;-72
2022/11/14 02:36:31;;;;;;;6.03;2.90;;;4.50;99.90;;;4.18;100.00;100878.50;5143531;28;20772;-71
2022/11/14 02:39:23;;;;;;;4.13;2.03;;;4.40;99.90;;;4.16;100.00;100867.19;5144788;28;20197;-71
2022/11/14 02:42:13;;;;;;;5.30;2.92;;;4.40;99.90;;;4.15;100.00;100874.84;5144226;28;20046;-70
2022/11/14 02:45:05;;;;;;;4.25;2.45;;;4.40;99.90;;;4.13;100.00;100869.59;5145013;28;20058;-71
2022/11/14 02:47:56;;;;;;;4.40;2.33;;;4.40;99.90;;;4.11;100.00;100871.19;5144102;28;20055;-70
2022/11/14 02:50:48;;;;;;;4.47;2.38;;;4.40;99.90;;;4.07;100.00;100867.53;5144333;28;20082;-71
2022/11/14 02:53:41;;;;;;;4.28;2.33;;;4.30;99.90;;;4.06;100.00;100863.16;5144342;28;20547;-71
2022/11/14 02:56:31;;;;;;;4.03;2.33;;;4.30;99.90;;;4.05;100.00;100857.91;5144493;28;20123;-72
2022/11/14 02:59:22;;;;;;;5.97;2.50;;;4.30;99.90;;;4.02;100.00;100866.34;5143543;28;20511;-71
2022/11/14 03:02:13;;;;;;;5.45;2.53;;;4.30;99.90;;;4.00;100.00;100870.53;5143990;28;20129;-71
2022/11/14 03:05:04;;;;;;;5.50;2.67;;;4.30;99.90;;;3.97;100.00;100859.09;5144256;28;20066;-70
2022/11/14 03:07:56;;;;;;;4.63;2.50;;;4.20;99.90;;;3.96;100.00;100865.06;5143652;28;20046;-72
2022/11/14 03:10:48;;;;;;;3.92;2.38;;;4.20;99.90;;;3.95;100.00;100869.34;5144515;28;20062;-71
2022/11/14 03:13:39;;;;;;;4.38;2.42;;;4.20;99.90;;;3.93;100.00;100862.31;5144033;28;20054;-71
2022/11/14 03:45:49;;;;;;;5.22;2.72;;;4.10;99.90;;;3.79;100.00;100827.94;5142227;28;20506;-72
2022/11/14 03:48:39;;;;;;;5.25;2.47;;;4.10;99.90;;;3.78;100.00;100831.28;5143461;28;20057;-71
2022/11/14 03:51:29;;;;;;;5.10;2.22;;;4.00;99.90;;;3.77;100.00;100824.34;5143751;28;20061;-71
2022/11/14 03:54:21;;;;;;;5.70;1.95;;;4.00;99.90;;;3.76;100.00;100826.03;5143737;28;20615;-71
2022/11/14 03:57:12;;;;;;;4.95;2.05;;;4.00;99.90;;;3.76;100.00;100825.16;5143691;28;20042;-71
2022/11/14 04:00:03;;;;;;;4.65;2.78;;;4.00;99.90;;;3.73;100.00;100822.38;5143166;28;20081;-71
2022/11/14 04:02:57;;;;;;;4.85;2.40;;;4.00;99.90;;;3.72;100.00;100813.75;5143253;28;20070;-71
2022/11/14 04:05:49;;;;;;;5.63;2.53;;;4.00;99.90;;;3.71;100.00;100811.06;5143860;28;20055;-71
2022/11/14 04:08:40;;;;;;;4.78;2.30;;;4.00;99.90;;;3.71;100.00;100816.22;5196957;23;20086;-73
2022/11/14 04:11:30;;;;;;;3.65;2.10;;;4.00;99.90;;;3.70;100.00;100812.75;5148080;28;20054;-73
2022/11/14 04:14:21;;;;;;;5.53;2.70;;;4.00;99.90;;;3.71;100.00;100808.50;5143063;28;20047;-73
2022/11/14 04:17:11;;;;;;;5.82;2.30;;;3.90;99.90;;;3.70;100.00;100811.88;5143845;28;20059;-73
2022/11/14 04:20:05;;;;;;;4.18;2.15;;;3.90;99.90;;;3.70;100.00;100817.03;5142876;28;20169;-72
2022/11/14 04:22:55;;;;;;;5.47;2.33;;;4.00;99.90;;;3.68;100.00;100813.47;5142845;28;20065;-73
2022/11/14 04:25:49;;;;;;;4.28;2.50;;;3.90;99.90;;;3.69;100.00;100810.97;5143529;28;20065;-73
2022/11/14 04:28:39;;;;;;;4.70;2.33;;;4.00;99.90;;;3.67;100.00;100811.69;5142998;28;20713;-72
2022/11/14 04:31:30;;;;;;;4.07;2.20;;;3.90;99.90;;;3.64;100.00;100801.16;5143444;28;20047;-73
2022/11/14 04:34:20;;;;;;;4.85;2.17;;;3.90;99.90;;;3.66;100.00;100799.59;5144890;28;20133;-72
2022/11/14 04:37:14;;;;;;;4.72;2.05;;;3.90;99.90;;;3.69;100.00;100798.09;5147175;28;20065;-73
2022/11/14 04:40:07;;;;;;;4.82;2.17;;;3.90;99.90;;;3.75;100.00;100803.63;5146882;28;20531;-73
2022/11/14 04:42:57;;;;;;;5.03;2.60;;;4.00;99.90;;;3.87;100.00;100800.91;5146584;28;20047;-74
2022/11/14 04:45:48;;;;;;;5.60;2.60;;;4.10;99.90;;;4.00;100.00;100793.13;5146786;28;20062;-74
2022/11/14 04:48:38;;;;;;;5.55;2.88;;;4.20;99.90;;;4.21;100.00;100797.81;5146582;28;20533;-74
2022/11/14 04:51:29;;;;;;;5.95;3.28;;;4.40;99.90;;;4.39;100.00;100787.69;5146783;28;20054;-74
2022/11/14 04:54:21;;;;;;;7.32;3.20;;;4.60;99.90;;;4.57;100.00;100789.69;5146377;28;20150;-73
2022/11/14 04:57:12;;;;;;;5.22;3.03;;;4.70;99.90;;;4.75;100.00;100796.69;5147011;28;20197;-73
2022/11/14 05:00:06;;;;;;;7.05;3.17;;;4.90;99.90;;;4.89;100.00;100806.16;5146072;28;20070;-73
2022/11/14 05:02:59;;;;;;;7.35;3.25;;;5.10;99.90;;;4.98;100.00;100798.91;5146471;28;20054;-73
2022/11/14 05:05:51;;;;;;;6.85;3.60;;;5.20;99.90;;;5.07;100.00;100789.09;5146590;28;20505;-73
2022/11/14 05:08:41;;;;;;;5.50;2.90;;;5.40;99.90;;;5.16;100.00;100793.91;5145753;28;20050;-73
2022/11/14 05:11:33;;;;;;;7.47;3.28;;;5.40;99.90;;;5.24;100.00;100791.75;5146546;28;20054;-72
2022/11/14 05:14:24;;;;;;;6.82;3.17;;;5.50;99.90;;;5.28;100.00;100788.50;5146407;28;20097;-73
2022/11/14 05:17:15;;;;;;;7.38;3.80;;;5.60;99.90;;;5.31;100.00;100783.53;5146387;28;20058;-74
2022/11/14 05:20:07;;;;;;;7.65;3.67;;;5.60;99.90;;;5.35;100.00;100791.53;5146317;28;20078;-73
2022/11/14 05:22:58;;;;;;;7.35;3.42;;;5.70;99.90;;;5.43;100.00;100789.38;5145774;28;20113;-73
2022/11/14 05:26:01;;;;;;;6.97;3.13;;;5.70;99.90;;;5.48;100.00;100793.13;5145384;28;20054;-73
2022/11/14 05:28:55;;;;;;;5.25;2.67;;;5.80;99.90;;;5.51;100.00;100782.94;5145234;28;20055;-73
2022/11/14 05:31:47;;;;;;;8.80;3.22;;;5.80;99.90;;;5.54;100.00;100777.94;5145487;28;20189;-73
2022/11/14 05:34:38;;;;;;;8.52;3.15;;;5.80;99.90;;;5.58;100.00;100779.88;5145045;28;20339;-73
2022/11/14 05:37:28;;;;;;;6.78;3.35;;;5.80;99.90;;;5.60;100.00;100775.66;5145383;28;20185;-74
2022/11/14 05:40:20;;;;;;;7.22;3.60;;;5.80;99.90;;;5.59;100.00;100776.47;5145121;28;20047;-72
2022/11/14 05:43:12;;;;;;;6.35;3.10;;;5.80;99.90;;;5.59;100.00;100773.88;5145702;28;20039;-73
2022/11/14 05:46:06;;;;;;;5.68;2.58;;;5.80;99.90;;;5.56;100.00;100768.56;5145152;28;20050;-73
2022/11/14 05:48:57;;;;;;;;;;;5.80;99.90;;;5.51;100.00;100759.66;5146019;28;20420;-72
2022/11/14 05:51:48;;;;;;;7.22;3.38;;;5.70;99.90;;;5.45;100.00;100761.91;5145900;28;19929;-73
2022/11/14 05:54:39;;;;;;;7.82;3.22;;;5.70;99.90;;;5.39;100.00;100753.81;5145105;28;20051;-73
2022/11/14 05:57:34;;;;;;;7.47;3.22;;;5.70;99.90;;;5.32;100.00;100754.28;5145339;28;20059;-73
2022/11/14 06:00:26;;;;;;;6.43;3.42;;;5.60;99.90;;;5.26;100.00;100759.13;5145542;28;20213;-73
2022/11/14 06:03:18;;;;;;;5.80;3.15;;;5.60;99.90;;;5.18;100.00;100753.53;5145486;28;20120;-73
2022/11/14 06:06:12;;;;;;;5.57;2.92;;;5.50;99.90;;;5.16;100.00;100748.28;5145578;28;20082;-74
2022/11/14 06:09:03;;;;;;;5.43;2.45;;;5.50;99.90;;;5.13;100.00;100750.69;5145025;28;20058;-73
2022/11/14 06:11:54;;;;;;;5.78;2.55;;;5.40;99.90;;;5.13;100.00;100747.19;5145449;28;20058;-73
2022/11/14 06:14:44;;;;;;;4.18;2.40;;;5.40;99.90;;;5.14;100.00;100748.97;5145273;28;20058;-74
2022/11/14 06:17:35;;;;;;;5.28;2.83;;;5.40;99.90;;;5.16;100.00;100753.44;5145127;28;20062;-73
2022/11/14 06:20:27;;;;;;;5.03;3.28;;;5.40;99.90;;;5.18;100.00;100758.69;5145265;28;20058;-73
2022/11/14 06:23:17;;;;;;;6.97;4.03;;;5.40;99.90;;;5.23;100.00;100762.44;5144902;28;20479;-73
2022/11/14 06:26:16;;;;;;;8.52;4.32;;;5.40;99.90;;;5.32;100.00;100760.34;5144994;28;20408;-73
2022/11/14 06:29:07;;;;;;;6.80;3.58;;;5.50;99.90;;;5.40;100.00;100771.09;5144876;28;20074;-74
2022/11/14 06:31:58;;;;;;;7.15;3.30;;;5.60;99.90;;;5.47;100.00;100760.28;5144692;28;20169;-74
2022/11/14 06:34:49;;;;;;;7.40;3.50;;;5.70;99.90;;;5.54;100.00;100770.19;5145037;28;20070;-73
2022/11/14 06:37:41;;;;;;;7.10;3.53;;;5.70;99.90;;;5.61;100.00;100774.00;5144726;28;20144;-73
2022/11/14 06:40:32;;;;;;;10.25;4.18;;;5.80;99.90;;;5.66;100.00;100778.56;5144693;28;20729;-73
2022/11/14 06:43:22;;;;;;;8.10;4.13;;;5.80;99.90;;;5.71;100.00;100774.53;5143533;28;20053;-74
2022/11/14 06:46:15;;;;;;;7.32;4.03;;;5.90;99.90;;;5.77;100.00;100766.22;5144838;28;20395;-74
2022/11/14 06:49:07;;;;;;;9.15;4.28;;;6.00;99.90;;;5.82;100.00;100753.56;5144273;28;20057;-73
2022/11/14 06:51:58;;;;;;;8.50;3.97;;;6.10;99.90;;;5.89;100.00;100755.66;5144338;28;20419;-73
2022/11/14 06:54:49;;;;;;;7.75;3.72;;;6.10;99.90;;;5.94;100.00;100754.25;5144212;28;20071;-72
2022/11/14 06:57:40;;;;;;;11.35;4.68;;;6.10;99.90;;;5.92;100.00;100755.84;5143389;28;20043;-73
2022/11/14 07:00:30;;;;;;;10.60;4.38;;;6.20;99.90;;;5.96;100.00;100752.59;5144507;28;20062;-74
2022/11/14 07:03:21;;;;;;;9.13;4.38;;;6.20;99.90;;;5.99;100.00;100750.16;5143931;28;20075;-71
2022/11/14 07:06:13;;;;;;;9.30;3.97;;;6.20;99.90;;;6.05;100.00;100753.06;5144132;28;20050;-54
2022/11/14 07:09:04;;;;;;;9.27;4.68;;;6.30;99.90;;;6.07;100.00;100738.53;5144096;28;20459;-55
2022/11/14 07:11:56;;;;;;;9.45;4.75;;;6.30;99.90;;;6.09;100.00;100746.38;5143756;28;20419;-55
2022/11/14 07:14:47;;;;;;;8.32;4.22;;;6.30;99.90;;;6.09;100.00;100752.44;5143762;28;20039;-54
2022/11/14 07:17:38;;;;;;;8.10;4.60;;;6.40;99.90;;;6.13;100.00;100745.69;5127790;28;20507;-53
2022/11/14 07:20:28;;;;;;;10.43;4.63;;;6.40;99.90;;;6.17;100.00;100747.66;5152557;28;20185;-54
2022/11/14 07:23:19;;;;;;;9.70;4.78;;;6.40;99.90;;;6.21;100.00;100749.59;5143805;28;20208;-55
2022/11/14 07:26:11;;;;;;;8.52;4.32;;;6.50;99.90;;;6.28;100.00;100755.97;5120572;28;20520;-55
2022/11/14 07:29:03;;;;;;;11.48;5.10;;;6.50;99.90;;;6.28;100.00;100751.69;5143734;28;20078;-55
2022/11/14 07:31:54;;;;;;;10.43;4.88;;;6.60;99.90;;;6.31;100.00;100754.41;5143973;28;20061;-55
2022/11/14 07:34:44;;;;;;;11.15;5.22;;;6.60;99.90;;;6.44;100.00;100749.06;5138148;28;20063;-56
2022/11/14 07:37:35;;;;;;;10.45;4.85;;;6.70;99.90;;;6.50;100.00;100748.47;5123952;29;20339;-55
2022/11/14 07:40:25;;;;;;;15.63;6.40;;;6.80;99.90;;;6.50;100.00;100748.47;5135136;28;20157;-56
2022/11/14 07:43:16;;;;;;;11.80;5.03;;;6.80;99.90;;;6.53;100.00;100749.53;5143489;28;20054;-57
2022/11/14 07:46:11;;;;;;;13.35;5.95;;;6.80;99.90;;;6.57;100.00;100750.56;5143940;28;20581;-55
2022/11/14 07:49:02;;;;;;;13.32;6.30;;;6.80;99.90;;;6.64;100.00;100757.81;5143923;28;20053;-56
2022/11/14 07:51:53;;;;;;;16.08;6.55;;;6.90;99.90;;;6.70;100.00;100754.66;5130275;28;20061;-55
2022/11/14 07:54:43;;;;;;;16.25;6.93;;;7.00;99.90;;;6.70;100.00;100750.34;5143702;28;20141;-56
2022/11/14 07:57:34;;;;;;;14.82;6.72;;;7.00;99.90;;;6.69;100.00;100760.66;5143778;28;20065;-56
2022/11/14 08:00:24;;;;;;;16.08;6.78;;;6.90;99.90;;;6.73;100.00;100760.00;5134826;28;20057;-56
2022/11/14 08:03:16;;;;;;;15.02;5.88;;;7.00;99.90;;;6.76;100.00;100755.84;5139487;28;20530;-54
2022/11/14 08:06:10;;;;;;;16.92;6.40;;;7.00;99.90;;;7.27;100.00;100756.59;5140626;28;20096;-56
2022/11/14 08:09:01;;;;;;;16.60;6.28;;;7.60;99.90;;;7.26;100.00;100752.22;5129655;28;20504;-58
2022/11/14 08:11:51;;;;;;;16.40;5.82;;;7.60;99.90;;;7.25;100.00;100746.97;5129762;28;20047;-55
2022/11/14 08:14:42;;;;;;;16.83;6.85;;;7.60;99.90;;;7.20;100.00;100746.75;5147718;28;20049;-55
2022/11/14 08:17:35;;;;;;;12.90;6.47;;;7.50;99.90;;;7.18;100.00;100740.59;5147469;28;20051;-56
2022/11/14 08:20:28;;;;;;;18.45;7.65;;;7.50;99.90;;;7.11;100.00;100730.75;5146595;28;20058;-57
2022/11/14 08:23:19;;;;;;;17.67;7.68;;;7.40;99.90;;;7.11;100.00;100724.66;5151176;28;20054;-57
2022/11/14 08:26:09;;;;;;;16.50;7.03;;;7.40;99.90;;;7.11;100.00;100724.66;5162393;28;20542;-56
2022/11/14 08:29:00;;;;;;;16.55;7.15;;;7.40;99.90;;;7.09;100.00;100722.00;5167436;28;20104;-56
2022/11/14 08:31:50;;;;;;;17.90;6.93;;;7.30;99.90;;;7.13;100.00;100720.47;5167325;28;20061;-56
2022/11/14 08:34:41;;;;;;;17.77;7.03;;;7.40;99.90;;;7.14;100.00;100725.72;5156144;28;20607;-56
2022/11/14 08:37:33;;;;;;;16.67;6.95;;;7.40;99.90;;;7.21;100.00;100725.19;5147315;28;20562;-57
2022/11/14 08:40:24;;;;;;;16.30;6.97;;;7.40;99.90;;;7.29;100.00;100725.53;5147053;28;20077;-56
2022/11/14 08:43:14;;;;;;;20.08;8.23;;;7.50;99.90;;;7.29;100.00;100731.59;5147064;28;20069;-57
2022/11/14 08:46:06;;;;;;;18.88;7.78;;;7.50;99.90;;;7.28;100.00;100726.34;5126959;29;20058;-57
2022/11/14 08:48:56;;;;;;;20.27;8.70;;;7.50;99.90;;;7.24;100.00;100722.75;5126816;29;20062;-55
2022/11/14 08:51:46;;;;;;;21.00;8.35;;;7.50;99.90;;;7.23;100.00;100727.84;5126930;29;20436;-56
2022/11/14 08:54:38;;;;;;;17.73;7.43;;;7.50;99.90;;;7.21;100.00;100726.88;5147430;28;20062;-55
2022/11/14 08:57:28;;;;;;;22.02;8.65;;;7.50;99.90;;;7.19;100.00;100736.31;5155389;28;20052;-57
2022/11/14 09:00:20;;;;;;;19.17;8.40;;;7.50;99.90;;;7.20;100.00;100738.97;5147229;28;20615;-55
2022/11/14 09:03:12;;;;;;;19.20;7.55;;;7.50;99.90;;;7.23;100.00;100726.13;5146616;28;20500;-56
2022/11/14 09:06:03;;;;;;;21.65;8.27;;;7.50;99.90;;;7.24;100.00;100742.59;5147322;28;20058;-58
2022/11/14 09:08:54;;;;;;;21.80;8.48;;;7.50;99.90;;;7.28;100.00;100739.31;5158196;28;20052;-55
2022/11/14 09:11:46;;;;;;;24.77;8.90;;;7.50;99.90;;;7.31;100.00;100742.06;5167151;28;20140;-56
2022/11/14 09:14:37;;;;;;;25.85;8.85;;;7.50;99.90;;;7.34;100.00;100743.09;5167229;28;20070;-56
2022/11/14 09:17:27;;;;;;;23.52;8.88;;;7.60;99.90;;;7.36;100.00;100735.38;5166006;28;20553;-55
2022/11/14 09:20:18;;;;;;;24.55;9.90;;;7.60;99.90;;;7.40;100.00;100733.81;5146060;28;20062;-56
2022/11/14 09:23:09;;;;;;;24.73;9.05;;;7.60;99.90;;;7.41;100.00;100735.59;5146296;28;20625;-55
2022/11/14 09:26:05;;;;;;;25.98;9.18;;;7.60;99.90;;;7.44;100.00;100736.63;5146183;28;20078;-56
2022/11/14 09:28:57;;;;;;;28.17;9.73;;;7.70;99.90;;;7.49;100.00;100731.66;5145745;28;20508;-56
2022/11/14 09:31:51;;;;;;;25.92;9.88;;;7.70;99.90;;;7.50;100.00;100733.44;5145870;28;20054;-55
2022/11/14 09:34:44;;;;;;;27.15;9.20;;;7.70;99.90;;;7.56;100.00;100731.09;5146321;28;20568;-56
2022/11/14 09:37:35;;;;;;;22.80;8.80;;;7.70;99.90;;;7.58;100.00;100726.91;5145871;28;20065;-55
2022/11/14 09:40:25;;;;;;;25.00;9.38;;;7.80;99.90;;;7.62;100.00;100727.09;5154678;28;20427;-56
2022/11/14 09:43:43;;;;;;;25.48;9.68;;;7.80;99.90;;;7.64;100.00;100729.78;5155675;28;20124;-56
2022/11/14 09:46:40;;;;;;;25.65;8.73;;;7.80;99.90;;;7.71;100.00;100736.13;5161725;28;20073;-56
2022/11/14 09:49:36;;;;;;;22.58;8.32;;;7.90;99.90;;;7.76;100.00;100730.31;5165739;28;20212;-56
2022/11/14 09:52:35;;;;;;;26.25;9.88;;;7.90;99.90;;;7.72;100.00;100727.53;5165867;28;20057;-57
2022/11/14 09:55:30;;;;;;;27.83;9.43;;;7.90;99.90;;;7.71;100.00;100728.34;5165894;28;20495;-56
2022/11/14 09:58:21;;;;;;;24.33;9.85;;;7.90;99.90;;;7.67;100.00;100729.00;5165721;28;20058;-56
2022/11/14 10:01:24;;;;;;;23.27;8.77;;;7.90;99.90;;;7.66;100.00;100715.16;5165652;28;20132;-56
2022/11/14 10:04:24;;;;;;;24.38;8.73;;;7.90;99.90;;;7.70;100.00;100714.47;5165612;28;20134;-55
2022/11/14 10:07:27;;;;;;;24.85;9.10;;;7.90;99.90;;;7.76;100.00;100698.28;5165742;28;20058;-56
2022/11/14 10:10:37;;;;;;;22.95;9.13;;;7.90;99.90;;;7.83;100.00;100696.03;5208948;23;20054;-56
2022/11/14 10:13:52;;;;;;;23.13;8.13;;;8.00;99.90;;;7.86;100.00;100716.94;5142362;28;20557;-56
2022/11/14 10:16:50;;;;;;;21.05;9.48;;;8.10;99.90;;;7.94;100.00;100709.47;5146055;28;20636;-57
2022/11/14 10:19:51;;;;;;;21.75;8.52;;;8.10;99.90;;;8.01;100.00;100708.03;5144554;28;20137;-59
2022/11/14 10:23:00;;;;;;;22.80;8.77;;;8.20;99.90;;;8.09;100.00;100714.47;5144998;28;20113;-57
2022/11/14 10:25:56;;;;;;;26.38;10.35;;;8.20;99.90;;;8.06;100.00;100710.00;5144372;28;20054;-56
2022/11/14 10:29:00;;;;;;;25.95;9.25;;;8.20;99.90;;;8.03;100.00;100709.00;5144675;28;20042;-57
2022/11/14 10:32:00;;;;;;;25.50;10.15;;;8.30;99.90;;;8.09;100.00;100711.88;5144867;28;20062;-57
2022/11/14 10:35:01;;;;;;;25.52;9.95;;;8.30;99.90;;;8.14;100.00;100723.31;5145617;28;20399;-57
2022/11/14 10:38:02;;;;;;;22.35;9.63;;;8.30;99.90;;;8.22;100.00;100710.69;5144197;28;20184;-58
2022/11/14 10:40:57;;;;;;;22.10;8.10;;;8.40;99.90;;;8.28;100.00;100706.66;5143844;28;20058;-57
2022/11/14 10:43:50;;;;;;;23.15;9.60;;;8.40;99.90;;;8.28;100.00;100717.03;5144582;28;20325;-57
2022/11/14 10:46:46;;;;;;;22.77;8.98;;;8.40;99.90;;;8.26;100.00;100713.47;5144763;28;20190;-57
2022/11/14 10:49:38;;;;;;;22.25;9.40;;;8.40;99.90;;;8.30;100.00;100712.78;5144109;28;20057;-58
2022/11/14 10:52:39;;;;;;;23.20;8.88;;;8.50;99.90;;;8.30;100.00;100715.38;5144387;28;20622;-57
2022/11/14 10:55:30;;;;;;;26.73;10.50;;;8.50;99.90;;;8.36;100.00;100710.47;5141035;28;20388;-56
2022/11/14 10:58:21;;;;;;;24.98;9.30;;;8.50;99.90;;;8.43;100.00;100711.63;5143993;28;20057;-58
2022/11/14 11:01:37;;;;;;;20.60;8.23;;;8.60;99.90;;;8.46;100.00;100692.66;5144253;28;20077;-57
2022/11/14 11:04:31;;;;;;;24.15;9.88;;;8.60;99.90;;;8.44;100.00;100684.81;5144238;28;20413;-57
2022/11/14 11:13:54;;;;;;;;;;;8.60;99.90;;;8.47;100.00;100686.66;5144746;28;20061;-56
2022/11/14 11:16:47;;;;;;;22.40;9.32;;;8.70;99.90;;;8.46;100.00;100682.28;5143983;28;20032;-57
2022/11/14 11:19:39;;;;;;;22.88;9.57;;;8.70;99.90;;;8.43;100.00;100681.34;5143714;28;20197;-59
2022/11/14 11:22:36;;;;;;;22.55;9.68;;;8.70;99.90;;;8.43;100.00;100670.94;5143793;28;20110;-58
2022/11/14 11:25:31;;;;;;;23.55;8.68;;;8.60;99.90;;;8.48;100.00;100663.34;5143920;28;20046;-58
2022/11/14 11:28:24;;;;;;;22.52;9.07;;;8.70;99.90;;;8.59;100.00;100658.56;5143741;28;20099;-59
2022/11/14 11:31:14;;;;;;;24.83;8.25;;;8.70;99.90;;;8.59;100.00;100659.47;5143626;28;20194;-57
2022/11/14 11:34:09;;;;;;;25.83;9.48;;;8.70;99.90;;;8.65;100.00;100664.03;5144044;28;20054;-58
2022/11/14 11:37:05;;;;;;;20.33;8.80;;;8.80;99.90;;;8.71;100.00;100661.66;5144127;28;20058;-57
2022/11/14 11:40:00;;;;;;;21.58;9.10;;;8.90;99.90;;;8.82;100.00;100656.91;5143792;28;20415;-56
2022/11/14 11:43:00;;;;;;;18.98;7.75;;;8.90;99.90;;;8.88;100.00;100659.75;5143585;28;20058;-57
2022/11/14 11:45:54;;;;;;;23.38;8.35;;;9.00;99.90;;;8.93;100.00;100643.50;5143749;28;20049;-58
2022/11/14 11:48:49;;;;;;;20.95;8.13;;;9.00;99.90;;;8.98;100.00;100643.66;5143575;28;20054;-59
2022/11/14 11:51:42;;;;;;;23.05;9.02;;;9.10;99.90;;;8.91;100.00;100629.53;5141225;28;20051;-57
2022/11/14 11:54:49;;;;;;;22.00;8.90;;;9.00;99.90;;;9.04;100.00;100614.44;5141050;28;20049;-56
2022/11/14 11:57:45;;;;;;;27.00;9.90;;;9.10;99.90;;;9.12;100.00;100613.88;5143356;28;20061;-57
2022/11/14 12:00:36;;;;;;;23.90;9.98;;;9.20;99.90;;;9.22;100.00;100607.31;5123688;28;20434;-57
2022/11/14 12:03:28;;;;;;;24.38;9.30;;;9.20;99.90;;;9.23;100.00;100606.50;5123027;28;20063;-57
2022/11/14 12:06:23;;;;;;;25.20;9.85;;;9.30;99.90;;;9.25;100.00;100604.81;5123096;29;20125;-57
2022/11/14 12:09:22;;;;;;;26.92;9.75;;;9.30;99.90;;;9.24;100.00;100603.06;5122856;29;20264;-60
2022/11/14 12:12:25;;;;;;;23.90;9.23;;;9.30;99.90;;;9.19;100.00;100592.50;5123637;29;20051;-57
2022/11/14 12:15:24;;;;;;;25.42;9.32;;;9.30;99.90;;;9.20;100.00;100588.19;5123393;29;20197;-57
2022/11/14 12:18:42;;;;;;;23.20;8.35;;;9.30;99.90;;;9.25;100.00;100584.00;5140170;28;20104;-57
2022/11/14 12:22:04;;;;;;;21.92;8.85;;;9.30;99.90;;;9.29;100.00;100578.09;5143147;28;20443;-57
2022/11/14 12:25:22;;;;;;;25.90;11.07;;;9.40;99.90;;;9.32;100.00;100573.00;5142569;28;20185;-57
2022/11/14 12:28:31;;;;;;;24.75;9.85;;;9.40;99.90;;;9.34;100.00;100570.47;5137074;28;20539;-56
2022/11/14 12:31:21;;;;;;;23.20;10.10;;;9.40;99.90;;;9.25;100.00;100579.69;5143962;28;20454;-57
2022/11/14 12:34:24;;;;;;;24.08;10.20;;;9.40;99.90;;;9.23;100.00;100575.28;5143474;28;20124;-56
2022/11/14 12:37:20;;;;;;;30.15;11.60;;;9.40;99.90;;;9.25;100.00;100573.59;5143682;28;20397;-56
2022/11/14 12:40:30;;;;;;;31.02;12.05;;;9.40;99.90;;;9.25;100.00;100574.50;5143632;28;20173;-58
2022/11/14 12:43:37;;;;;;;29.80;13.32;;;9.40;99.90;;;9.21;100.00;100588.22;5143205;28;20157;-57
2022/11/14 12:46:27;;;;;;;23.90;9.48;;;9.40;99.90;;;9.23;100.00;100580.47;5140085;28;20314;-55
2022/11/14 12:49:59;;;;;;;25.80;9.52;;;9.40;99.90;;;9.25;100.00;100578.81;5142639;28;20089;-58
2022/11/14 12:52:52;;;;;;;28.55;10.73;;;9.40;99.90;;;9.27;100.00;100571.97;5143238;28;20062;-58
2022/11/14 12:56:14;;;;;;;20.42;8.82;;;9.40;99.90;;;9.20;100.00;100569.97;5145454;28;20105;-57
2022/11/14 12:59:35;;;;;;;23.92;10.10;;;9.40;99.90;;;9.17;100.00;100565.53;5146546;28;20528;-57
2022/11/14 13:03:04;;;;;;;28.98;11.80;;;9.30;99.90;;;9.17;100.00;100569.84;5147242;28;20077;-57
2022/11/14 13:05:59;;;;;;;24.70;11.20;;;9.30;99.90;;;9.20;100.00;100570.88;5147120;28;20062;-57
2022/11/14 13:09:16;;;;;;;23.48;9.48;;;9.30;99.90;;;9.19;100.00;100568.19;5146546;28;20105;-56
2022/11/14 13:22:42;;;;;;;25.92;10.70;;;9.30;99.90;;;9.13;100.00;100570.59;5146272;28;20574;-55
2022/11/14 13:25:33;;;;;;;21.63;9.50;;;9.30;99.90;;;9.12;100.00;100576.59;5145020;28;20309;-56
2022/11/14 13:28:47;;;;;;;21.27;9.35;;;9.30;99.90;;;9.11;100.00;100574.81;5141025;28;20054;-59
2022/11/14 13:31:50;;;;;;;21.10;8.77;;;9.30;99.90;;;9.12;100.00;100569.66;5145403;28;20426;-57
2022/11/14 13:34:48;;;;;;;22.90;9.80;;;9.30;99.90;;;9.10;100.00;100568.75;5165940;28;20095;-56
2022/11/14 13:38:11;;;;;;;22.80;9.93;;;9.30;99.90;;;9.09;100.00;100566.09;5159771;28;20157;-60
2022/11/14 13:41:27;;;;;;;23.75;9.98;;;9.30;99.90;;;9.24;100.00;100566.63;5178029;28;20045;-57
2022/11/14 13:44:47;;;;;;;23.63;9.50;;;9.40;99.90;;;9.23;100.00;100563.16;5170163;28;20519;-57
2022/11/14 13:48:04;;;;;;;;;;;9.40;99.90;;;9.21;100.00;100558.75;5169248;28;20057;-59
2022/11/14 13:50:59;;;;;;;25.88;11.57;;;9.40;99.90;;;9.17;100.00;100551.66;5164818;28;19948;-57
2022/11/14 13:53:51;;;;;;;24.17;9.90;;;9.40;99.90;;;9.14;100.00;100555.03;5165083;28;20537;-57
2022/11/14 13:56:57;;;;;;;25.42;11.40;;;9.30;99.90;;;9.12;100.00;100556.66;5165839;28;20046;-57